sensor_id;sensor_type;location;lat;lon;timestamp;P1;durP1;ratioP1;P2;durP2;ratioP2
71174;SDS011;58876;51.994;4.472;2022-12-18T00:01:56;57.87;;;56.60;;
71174;SDS011;58876;51.994;4.472;2022-12-18T00:04:24;57.90;;;57.19;;
71174;SDS011;58876;51.994;4.472;2022-12-18T00:06:51;55.60;;;54.08;;
71174;SDS011;58876;51.994;4.472;2022-12-18T00:09:17;55.72;;;54.04;;
71174;SDS011;58876;51.994;4.472;2022-12-18T00:11:42;58.04;;;57.57;;
71174;SDS011;58876;51.994;4.472;2022-12-18T00:14:08;64.81;;;64.79;;
71174;SDS011;58876;51.994;4.472;2022-12-18T00:16:36;83.74;;;83.74;;
71174;SDS011;58876;51.994;4.472;2022-12-18T00:19:02;145.29;;;145.29;;
71174;SDS011;58876;51.994;4.472;2022-12-18T00:21:30;168.14;;;168.14;;
71174;SDS011;58876;51.994;4.472;2022-12-18T00:23:59;143.77;;;143.77;;
71174;SDS011;58876;51.994;4.472;2022-12-18T00:26:26;111.03;;;111.03;;
71174;SDS011;58876;51.994;4.472;2022-12-18T00:28:54;97.85;;;97.85;;
71174;SDS011;58876;51.994;4.472;2022-12-18T00:31:23;90.79;;;90.79;;
71174;SDS011;58876;51.994;4.472;2022-12-18T00:33:49;62.78;;;62.47;;
71174;SDS011;58876;51.994;4.472;2022-12-18T00:36:16;58.36;;;57.45;;
71174;SDS011;58876;51.994;4.472;2022-12-18T00:38:44;59.37;;;58.63;;
71174;SDS011;58876;51.994;4.472;2022-12-18T00:41:11;61.06;;;61.02;;
71174;SDS011;58876;51.994;4.472;2022-12-18T00:43:59;59.32;;;59.04;;
71174;SDS011;58876;51.994;4.472;2022-12-18T00:46:24;61.75;;;61.74;;
71174;SDS011;58876;51.994;4.472;2022-12-18T00:48:50;61.27;;;61.27;;
71174;SDS011;58876;51.994;4.472;2022-12-18T00:51:15;64.52;;;64.43;;
71174;SDS011;58876;51.994;4.472;2022-12-18T00:53:40;87.57;;;87.56;;
71174;SDS011;58876;51.994;4.472;2022-12-18T00:56:06;91.86;;;91.86;;
71174;SDS011;58876;51.994;4.472;2022-12-18T00:58:31;78.11;;;78.11;;
71174;SDS011;58876;51.994;4.472;2022-12-18T01:00:57;126.64;;;126.64;;
71174;SDS011;58876;51.994;4.472;2022-12-18T01:03:22;149.79;;;149.79;;
71174;SDS011;58876;51.994;4.472;2022-12-18T01:05:48;126.88;;;126.88;;
71174;SDS011;58876;51.994;4.472;2022-12-18T01:08:13;152.17;;;152.17;;
71174;SDS011;58876;51.994;4.472;2022-12-18T01:10:41;110.91;;;110.91;;
71174;SDS011;58876;51.994;4.472;2022-12-18T01:13:07;129.83;;;129.83;;
71174;SDS011;58876;51.994;4.472;2022-12-18T01:15:32;123.02;;;123.02;;
71174;SDS011;58876;51.994;4.472;2022-12-18T01:17:58;118.22;;;118.22;;
71174;SDS011;58876;51.994;4.472;2022-12-18T01:20:23;142.53;;;142.53;;
71174;SDS011;58876;51.994;4.472;2022-12-18T01:22:48;120.08;;;120.08;;
71174;SDS011;58876;51.994;4.472;2022-12-18T01:25:14;156.93;;;156.93;;
71174;SDS011;58876;51.994;4.472;2022-12-18T01:27:39;165.61;;;165.61;;
71174;SDS011;58876;51.994;4.472;2022-12-18T01:30:05;211.93;;;211.93;;
71174;SDS011;58876;51.994;4.472;2022-12-18T01:32:31;315.45;;;315.45;;
71174;SDS011;58876;51.994;4.472;2022-12-18T01:34:57;429.35;;;429.35;;
71174;SDS011;58876;51.994;4.472;2022-12-18T01:37:23;323.42;;;323.42;;
71174;SDS011;58876;51.994;4.472;2022-12-18T01:39:48;233.00;;;233.00;;
71174;SDS011;58876;51.994;4.472;2022-12-18T01:42:15;192.01;;;192.01;;
71174;SDS011;58876;51.994;4.472;2022-12-18T01:47:27;103.03;;;103.03;;
71174;SDS011;58876;51.994;4.472;2022-12-18T01:50:02;79.90;;;79.90;;
71174;SDS011;58876;51.994;4.472;2022-12-18T01:52:35;58.24;;;57.06;;
71174;SDS011;58876;51.994;4.472;2022-12-18T01:55:07;57.97;;;56.57;;
71174;SDS011;58876;51.994;4.472;2022-12-18T01:57:35;63.04;;;62.54;;
71174;SDS011;58876;51.994;4.472;2022-12-18T02:00:13;58.89;;;58.59;;
71174;SDS011;58876;51.994;4.472;2022-12-18T02:02:41;56.56;;;56.00;;
71174;SDS011;58876;51.994;4.472;2022-12-18T02:05:10;57.49;;;56.35;;
71174;SDS011;58876;51.994;4.472;2022-12-18T02:07:45;65.79;;;65.79;;
71174;SDS011;58876;51.994;4.472;2022-12-18T02:15:33;81.18;;;81.18;;
71174;SDS011;58876;51.994;4.472;2022-12-18T02:18:30;77.08;;;77.08;;
71174;SDS011;58876;51.994;4.472;2022-12-18T02:21:12;76.19;;;76.19;;
71174;SDS011;58876;51.994;4.472;2022-12-18T02:26:57;71.69;;;71.69;;
71174;SDS011;58876;51.994;4.472;2022-12-18T02:31:57;160.03;;;160.03;;
71174;SDS011;58876;51.994;4.472;2022-12-18T02:34:26;160.85;;;160.85;;
71174;SDS011;58876;51.994;4.472;2022-12-18T02:36:58;189.89;;;189.89;;
71174;SDS011;58876;51.994;4.472;2022-12-18T02:39:29;282.41;;;282.41;;
71174;SDS011;58876;51.994;4.472;2022-12-18T02:41:57;401.25;;;401.25;;
71174;SDS011;58876;51.994;4.472;2022-12-18T02:44:24;411.82;;;411.82;;
71174;SDS011;58876;51.994;4.472;2022-12-18T02:46:50;385.65;;;385.65;;
71174;SDS011;58876;51.994;4.472;2022-12-18T02:49:40;306.44;;;306.44;;
71174;SDS011;58876;51.994;4.472;2022-12-18T02:52:39;249.51;;;249.51;;
71174;SDS011;58876;51.994;4.472;2022-12-18T02:55:34;258.95;;;258.95;;
71174;SDS011;58876;51.994;4.472;2022-12-18T02:58:17;126.49;;;126.49;;
71174;SDS011;58876;51.994;4.472;2022-12-18T03:03:31;130.77;;;130.77;;
71174;SDS011;58876;51.994;4.472;2022-12-18T03:06:28;134.79;;;134.79;;
71174;SDS011;58876;51.994;4.472;2022-12-18T03:08:58;154.14;;;154.14;;
71174;SDS011;58876;51.994;4.472;2022-12-18T03:11:36;166.24;;;166.24;;
71174;SDS011;58876;51.994;4.472;2022-12-18T03:14:26;208.96;;;208.96;;
71174;SDS011;58876;51.994;4.472;2022-12-18T03:16:59;152.97;;;152.97;;
71174;SDS011;58876;51.994;4.472;2022-12-18T03:19:29;118.70;;;118.70;;
71174;SDS011;58876;51.994;4.472;2022-12-18T03:21:57;97.89;;;97.89;;
71174;SDS011;58876;51.994;4.472;2022-12-18T03:24:28;59.17;;;59.17;;
71174;SDS011;58876;51.994;4.472;2022-12-18T03:27:02;52.32;;;52.24;;
71174;SDS011;58876;51.994;4.472;2022-12-18T03:32:12;48.41;;;47.46;;
71174;SDS011;58876;51.994;4.472;2022-12-18T03:34:46;46.84;;;45.91;;
71174;SDS011;58876;51.994;4.472;2022-12-18T03:37:15;46.60;;;45.61;;
71174;SDS011;58876;51.994;4.472;2022-12-18T03:39:41;47.52;;;45.81;;
71174;SDS011;58876;51.994;4.472;2022-12-18T03:42:28;51.55;;;51.36;;
71174;SDS011;58876;51.994;4.472;2022-12-18T03:45:09;97.16;;;97.16;;
71174;SDS011;58876;51.994;4.472;2022-12-18T03:47:46;113.82;;;113.82;;
71174;SDS011;58876;51.994;4.472;2022-12-18T03:50:32;82.43;;;82.43;;
71174;SDS011;58876;51.994;4.472;2022-12-18T03:55:56;55.32;;;55.32;;
71174;SDS011;58876;51.994;4.472;2022-12-18T03:58:25;53.52;;;53.48;;
71174;SDS011;58876;51.994;4.472;2022-12-18T04:00:54;58.92;;;58.92;;
71174;SDS011;58876;51.994;4.472;2022-12-18T04:03:24;52.17;;;52.15;;
71174;SDS011;58876;51.994;4.472;2022-12-18T04:05:54;70.67;;;70.67;;
71174;SDS011;58876;51.994;4.472;2022-12-18T04:08:22;97.56;;;97.56;;
71174;SDS011;58876;51.994;4.472;2022-12-18T04:10:49;123.42;;;123.42;;
71174;SDS011;58876;51.994;4.472;2022-12-18T04:13:25;156.00;;;156.00;;
71174;SDS011;58876;51.994;4.472;2022-12-18T04:15:53;148.88;;;148.88;;
71174;SDS011;58876;51.994;4.472;2022-12-18T04:18:19;106.89;;;106.89;;
71174;SDS011;58876;51.994;4.472;2022-12-18T04:20:44;82.24;;;82.24;;
71174;SDS011;58876;51.994;4.472;2022-12-18T04:23:10;77.39;;;77.39;;
71174;SDS011;58876;51.994;4.472;2022-12-18T04:25:36;96.95;;;96.95;;
71174;SDS011;58876;51.994;4.472;2022-12-18T04:28:01;110.35;;;110.35;;
71174;SDS011;58876;51.994;4.472;2022-12-18T04:30:26;134.17;;;134.17;;
71174;SDS011;58876;51.994;4.472;2022-12-18T04:32:52;114.57;;;114.57;;
71174;SDS011;58876;51.994;4.472;2022-12-18T04:35:17;171.56;;;171.56;;
71174;SDS011;58876;51.994;4.472;2022-12-18T04:37:43;139.90;;;139.90;;
71174;SDS011;58876;51.994;4.472;2022-12-18T04:40:08;191.98;;;191.98;;
71174;SDS011;58876;51.994;4.472;2022-12-18T04:42:34;317.59;;;317.59;;
71174;SDS011;58876;51.994;4.472;2022-12-18T04:45:00;411.11;;;411.11;;
71174;SDS011;58876;51.994;4.472;2022-12-18T04:47:25;492.64;;;492.64;;
71174;SDS011;58876;51.994;4.472;2022-12-18T04:49:50;357.88;;;357.88;;
71174;SDS011;58876;51.994;4.472;2022-12-18T04:52:16;453.69;;;453.69;;
71174;SDS011;58876;51.994;4.472;2022-12-18T04:54:41;513.80;;;513.80;;
71174;SDS011;58876;51.994;4.472;2022-12-18T04:57:07;340.55;;;340.55;;
71174;SDS011;58876;51.994;4.472;2022-12-18T04:59:32;314.71;;;314.71;;
71174;SDS011;58876;51.994;4.472;2022-12-18T05:01:58;280.57;;;280.57;;
71174;SDS011;58876;51.994;4.472;2022-12-18T05:04:23;165.65;;;165.65;;
71174;SDS011;58876;51.994;4.472;2022-12-18T05:06:48;120.10;;;120.10;;
71174;SDS011;58876;51.994;4.472;2022-12-18T05:09:14;127.58;;;127.58;;
71174;SDS011;58876;51.994;4.472;2022-12-18T05:11:39;114.18;;;114.18;;
71174;SDS011;58876;51.994;4.472;2022-12-18T05:14:05;155.59;;;155.59;;
71174;SDS011;58876;51.994;4.472;2022-12-18T05:16:30;200.40;;;200.40;;
71174;SDS011;58876;51.994;4.472;2022-12-18T05:18:56;159.22;;;159.22;;
71174;SDS011;58876;51.994;4.472;2022-12-18T05:21:21;138.44;;;138.44;;
71174;SDS011;58876;51.994;4.472;2022-12-18T05:23:46;119.56;;;119.56;;
71174;SDS011;58876;51.994;4.472;2022-12-18T05:26:14;124.66;;;124.66;;
71174;SDS011;58876;51.994;4.472;2022-12-18T05:28:42;128.73;;;128.73;;
71174;SDS011;58876;51.994;4.472;2022-12-18T05:31:08;93.24;;;93.24;;
71174;SDS011;58876;51.994;4.472;2022-12-18T05:33:34;98.30;;;98.30;;
71174;SDS011;58876;51.994;4.472;2022-12-18T05:36:03;87.29;;;87.29;;
71174;SDS011;58876;51.994;4.472;2022-12-18T05:38:31;73.00;;;73.00;;
71174;SDS011;58876;51.994;4.472;2022-12-18T05:40:59;80.64;;;80.64;;
71174;SDS011;58876;51.994;4.472;2022-12-18T05:43:25;51.41;;;51.15;;
71174;SDS011;58876;51.994;4.472;2022-12-18T05:45:52;44.92;;;44.25;;
71174;SDS011;58876;51.994;4.472;2022-12-18T05:48:19;46.05;;;45.85;;
71174;SDS011;58876;51.994;4.472;2022-12-18T05:50:46;46.32;;;46.22;;
71174;SDS011;58876;51.994;4.472;2022-12-18T05:53:13;44.95;;;44.24;;
71174;SDS011;58876;51.994;4.472;2022-12-18T05:55:40;48.02;;;47.72;;
71174;SDS011;58876;51.994;4.472;2022-12-18T05:58:07;65.95;;;65.95;;
71174;SDS011;58876;51.994;4.472;2022-12-18T06:00:35;93.68;;;93.68;;
71174;SDS011;58876;51.994;4.472;2022-12-18T06:03:05;83.40;;;83.40;;
71174;SDS011;58876;51.994;4.472;2022-12-18T06:05:40;84.43;;;84.43;;
71174;SDS011;58876;51.994;4.472;2022-12-18T06:08:07;70.01;;;70.01;;
71174;SDS011;58876;51.994;4.472;2022-12-18T06:10:33;99.41;;;99.41;;
71174;SDS011;58876;51.994;4.472;2022-12-18T06:12:59;172.01;;;172.01;;
71174;SDS011;58876;51.994;4.472;2022-12-18T06:15:25;206.33;;;206.33;;
71174;SDS011;58876;51.994;4.472;2022-12-18T06:17:51;203.60;;;203.60;;
71174;SDS011;58876;51.994;4.472;2022-12-18T06:20:16;117.65;;;117.65;;
71174;SDS011;58876;51.994;4.472;2022-12-18T06:22:42;146.64;;;146.64;;
71174;SDS011;58876;51.994;4.472;2022-12-18T06:25:07;150.49;;;150.49;;
71174;SDS011;58876;51.994;4.472;2022-12-18T06:27:33;190.74;;;190.74;;
71174;SDS011;58876;51.994;4.472;2022-12-18T06:29:59;156.27;;;156.27;;
71174;SDS011;58876;51.994;4.472;2022-12-18T06:32:25;171.02;;;171.02;;
71174;SDS011;58876;51.994;4.472;2022-12-18T06:34:51;230.41;;;230.41;;
71174;SDS011;58876;51.994;4.472;2022-12-18T06:37:16;246.35;;;246.35;;
71174;SDS011;58876;51.994;4.472;2022-12-18T06:39:42;132.21;;;132.21;;
71174;SDS011;58876;51.994;4.472;2022-12-18T06:42:07;103.11;;;103.11;;
71174;SDS011;58876;51.994;4.472;2022-12-18T06:44:32;69.99;;;69.99;;
71174;SDS011;58876;51.994;4.472;2022-12-18T06:46:58;47.70;;;47.69;;
71174;SDS011;58876;51.994;4.472;2022-12-18T06:49:23;50.59;;;50.59;;
71174;SDS011;58876;51.994;4.472;2022-12-18T06:51:49;49.05;;;49.05;;
71174;SDS011;58876;51.994;4.472;2022-12-18T06:54:14;47.88;;;47.88;;
71174;SDS011;58876;51.994;4.472;2022-12-18T06:56:40;45.11;;;45.07;;
71174;SDS011;58876;51.994;4.472;2022-12-18T06:59:05;42.43;;;42.11;;
71174;SDS011;58876;51.994;4.472;2022-12-18T07:01:31;43.14;;;43.12;;
71174;SDS011;58876;51.994;4.472;2022-12-18T07:03:56;42.34;;;42.32;;
71174;SDS011;58876;51.994;4.472;2022-12-18T07:06:23;52.23;;;52.23;;
71174;SDS011;58876;51.994;4.472;2022-12-18T07:08:50;65.18;;;65.18;;
71174;SDS011;58876;51.994;4.472;2022-12-18T07:11:17;66.90;;;66.90;;
71174;SDS011;58876;51.994;4.472;2022-12-18T07:13:44;78.97;;;78.97;;
71174;SDS011;58876;51.994;4.472;2022-12-18T07:16:12;68.93;;;68.93;;
71174;SDS011;58876;51.994;4.472;2022-12-18T07:18:42;82.35;;;82.35;;
71174;SDS011;58876;51.994;4.472;2022-12-18T07:21:09;76.04;;;76.04;;
71174;SDS011;58876;51.994;4.472;2022-12-18T07:23:37;62.82;;;62.82;;
71174;SDS011;58876;51.994;4.472;2022-12-18T07:26:08;63.51;;;63.51;;
71174;SDS011;58876;51.994;4.472;2022-12-18T07:28:35;46.98;;;46.98;;
71174;SDS011;58876;51.994;4.472;2022-12-18T07:31:03;39.88;;;39.88;;
71174;SDS011;58876;51.994;4.472;2022-12-18T07:33:32;35.99;;;35.89;;
71174;SDS011;58876;51.994;4.472;2022-12-18T07:35:58;36.58;;;36.43;;
71174;SDS011;58876;51.994;4.472;2022-12-18T07:38:32;36.36;;;36.09;;
71174;SDS011;58876;51.994;4.472;2022-12-18T07:41:06;36.18;;;35.81;;
71174;SDS011;58876;51.994;4.472;2022-12-18T07:43:37;35.60;;;35.28;;
71174;SDS011;58876;51.994;4.472;2022-12-18T07:46:04;35.50;;;35.43;;
71174;SDS011;58876;51.994;4.472;2022-12-18T07:48:30;35.71;;;35.61;;
71174;SDS011;58876;51.994;4.472;2022-12-18T07:50:59;36.96;;;36.96;;
71174;SDS011;58876;51.994;4.472;2022-12-18T07:53:26;42.13;;;42.13;;
71174;SDS011;58876;51.994;4.472;2022-12-18T07:56:01;57.91;;;57.91;;
71174;SDS011;58876;51.994;4.472;2022-12-18T07:58:30;79.56;;;79.56;;
71174;SDS011;58876;51.994;4.472;2022-12-18T08:03:31;81.43;;;81.43;;
71174;SDS011;58876;51.994;4.472;2022-12-18T08:05:58;69.92;;;69.92;;
71174;SDS011;58876;51.994;4.472;2022-12-18T08:08:28;65.37;;;65.37;;
71174;SDS011;58876;51.994;4.472;2022-12-18T08:10:55;86.48;;;86.48;;
71174;SDS011;58876;51.994;4.472;2022-12-18T08:13:21;93.82;;;93.82;;
71174;SDS011;58876;51.994;4.472;2022-12-18T08:15:54;138.31;;;138.31;;
71174;SDS011;58876;51.994;4.472;2022-12-18T08:18:28;126.81;;;126.81;;
71174;SDS011;58876;51.994;4.472;2022-12-18T08:20:54;136.22;;;136.22;;
71174;SDS011;58876;51.994;4.472;2022-12-18T08:23:20;116.81;;;116.81;;
71174;SDS011;58876;51.994;4.472;2022-12-18T08:25:47;189.03;;;189.03;;
71174;SDS011;58876;51.994;4.472;2022-12-18T08:28:12;219.61;;;219.61;;
71174;SDS011;58876;51.994;4.472;2022-12-18T08:30:38;223.73;;;223.73;;
71174;SDS011;58876;51.994;4.472;2022-12-18T08:33:03;222.22;;;222.22;;
71174;SDS011;58876;51.994;4.472;2022-12-18T08:35:29;320.13;;;320.13;;
71174;SDS011;58876;51.994;4.472;2022-12-18T08:37:55;351.26;;;351.26;;
71174;SDS011;58876;51.994;4.472;2022-12-18T08:40:20;380.17;;;380.17;;
71174;SDS011;58876;51.994;4.472;2022-12-18T08:42:46;403.54;;;403.54;;
71174;SDS011;58876;51.994;4.472;2022-12-18T08:45:33;511.76;;;511.76;;
71174;SDS011;58876;51.994;4.472;2022-12-18T08:47:59;620.83;;;620.83;;
71174;SDS011;58876;51.994;4.472;2022-12-18T08:50:24;652.80;;;652.80;;
71174;SDS011;58876;51.994;4.472;2022-12-18T08:52:50;634.70;;;634.70;;
71174;SDS011;58876;51.994;4.472;2022-12-18T08:55:15;703.27;;;703.27;;
71174;SDS011;58876;51.994;4.472;2022-12-18T08:57:40;683.14;;;683.14;;
71174;SDS011;58876;51.994;4.472;2022-12-18T09:00:06;778.49;;;778.49;;
71174;SDS011;58876;51.994;4.472;2022-12-18T09:02:32;799.80;;;799.80;;
71174;SDS011;58876;51.994;4.472;2022-12-18T09:04:58;805.38;;;805.38;;
71174;SDS011;58876;51.994;4.472;2022-12-18T09:07:23;802.74;;;802.74;;
71174;SDS011;58876;51.994;4.472;2022-12-18T09:09:49;773.24;;;773.24;;
71174;SDS011;58876;51.994;4.472;2022-12-18T09:12:14;789.30;;;789.30;;
71174;SDS011;58876;51.994;4.472;2022-12-18T09:14:40;803.60;;;803.60;;
71174;SDS011;58876;51.994;4.472;2022-12-18T09:17:05;811.01;;;811.01;;
71174;SDS011;58876;51.994;4.472;2022-12-18T09:19:31;804.98;;;804.98;;
71174;SDS011;58876;51.994;4.472;2022-12-18T09:21:56;809.12;;;809.12;;
71174;SDS011;58876;51.994;4.472;2022-12-18T09:24:25;838.44;;;838.44;;
71174;SDS011;58876;51.994;4.472;2022-12-18T09:26:52;848.06;;;848.06;;
71174;SDS011;58876;51.994;4.472;2022-12-18T09:29:20;842.41;;;842.41;;
71174;SDS011;58876;51.994;4.472;2022-12-18T09:31:45;835.06;;;835.06;;
71174;SDS011;58876;51.994;4.472;2022-12-18T09:34:11;842.90;;;842.90;;
71174;SDS011;58876;51.994;4.472;2022-12-18T09:36:37;849.61;;;849.61;;
71174;SDS011;58876;51.994;4.472;2022-12-18T09:39:03;842.39;;;842.39;;
71174;SDS011;58876;51.994;4.472;2022-12-18T09:43:58;813.11;;;813.11;;
71174;SDS011;58876;51.994;4.472;2022-12-18T09:46:31;839.32;;;839.32;;
71174;SDS011;58876;51.994;4.472;2022-12-18T09:49:03;822.69;;;822.69;;
71174;SDS011;58876;51.994;4.472;2022-12-18T09:51:36;872.30;;;872.30;;
71174;SDS011;58876;51.994;4.472;2022-12-18T09:54:12;797.93;;;797.93;;
71174;SDS011;58876;51.994;4.472;2022-12-18T09:56:45;770.38;;;770.38;;
71174;SDS011;58876;51.994;4.472;2022-12-18T09:59:18;855.94;;;855.94;;
71174;SDS011;58876;51.994;4.472;2022-12-18T10:01:48;846.39;;;846.39;;
71174;SDS011;58876;51.994;4.472;2022-12-18T10:04:14;815.10;;;815.10;;
71174;SDS011;58876;51.994;4.472;2022-12-18T10:20:28;540.35;;;540.35;;
71174;SDS011;58876;51.994;4.472;2022-12-18T10:23:07;579.71;;;579.71;;
71174;SDS011;58876;51.994;4.472;2022-12-18T10:26:03;327.41;;;327.41;;
71174;SDS011;58876;51.994;4.472;2022-12-18T10:28:32;242.48;;;242.48;;
71174;SDS011;58876;51.994;4.472;2022-12-18T10:31:01;343.96;;;343.96;;
71174;SDS011;58876;51.994;4.472;2022-12-18T10:33:31;378.88;;;378.88;;
71174;SDS011;58876;51.994;4.472;2022-12-18T10:35:59;346.96;;;346.96;;
71174;SDS011;58876;51.994;4.472;2022-12-18T10:38:28;188.78;;;188.78;;
71174;SDS011;58876;51.994;4.472;2022-12-18T10:40:57;140.51;;;140.51;;
71174;SDS011;58876;51.994;4.472;2022-12-18T10:43:29;283.16;;;283.16;;
71174;SDS011;58876;51.994;4.472;2022-12-18T10:46:15;215.53;;;215.53;;
71174;SDS011;58876;51.994;4.472;2022-12-18T10:51:46;161.14;;;161.14;;
71174;SDS011;58876;51.994;4.472;2022-12-18T10:54:07;114.82;;;114.82;;
71174;SDS011;58876;51.994;4.472;2022-12-18T10:56:42;101.32;;;101.32;;
71174;SDS011;58876;51.994;4.472;2022-12-18T10:59:08;77.67;;;77.67;;
71174;SDS011;58876;51.994;4.472;2022-12-18T11:01:56;85.76;;;85.76;;
71174;SDS011;58876;51.994;4.472;2022-12-18T11:04:32;35.44;;;35.44;;
71174;SDS011;58876;51.994;4.472;2022-12-18T11:09:30;35.06;;;35.06;;
71174;SDS011;58876;51.994;4.472;2022-12-18T11:11:58;43.18;;;43.18;;
71174;SDS011;58876;51.994;4.472;2022-12-18T11:14:28;31.27;;;31.27;;
71174;SDS011;58876;51.994;4.472;2022-12-18T11:16:57;31.42;;;31.42;;
71174;SDS011;58876;51.994;4.472;2022-12-18T11:21:57;32.83;;;32.83;;
71174;SDS011;58876;51.994;4.472;2022-12-18T11:24:33;29.81;;;29.81;;
71174;SDS011;58876;51.994;4.472;2022-12-18T11:27:04;31.65;;;31.65;;
71174;SDS011;58876;51.994;4.472;2022-12-18T11:29:40;29.97;;;29.97;;
71174;SDS011;58876;51.994;4.472;2022-12-18T11:34:59;29.83;;;29.83;;
71174;SDS011;58876;51.994;4.472;2022-12-18T11:37:56;33.29;;;33.29;;
71174;SDS011;58876;51.994;4.472;2022-12-18T11:40:33;42.05;;;42.05;;
71174;SDS011;58876;51.994;4.472;2022-12-18T11:43:07;70.80;;;70.80;;
71174;SDS011;58876;51.994;4.472;2022-12-18T11:45:45;63.23;;;63.23;;
71174;SDS011;58876;51.994;4.472;2022-12-18T11:48:24;62.01;;;62.01;;
71174;SDS011;58876;51.994;4.472;2022-12-18T11:50:58;43.05;;;43.05;;
71174;SDS011;58876;51.994;4.472;2022-12-18T11:53:28;32.97;;;32.97;;
71174;SDS011;58876;51.994;4.472;2022-12-18T12:04:10;28.30;;;28.25;;
71174;SDS011;58876;51.994;4.472;2022-12-18T12:06:59;27.58;;;27.58;;
71174;SDS011;58876;51.994;4.472;2022-12-18T12:10:00;27.89;;;27.88;;
71174;SDS011;58876;51.994;4.472;2022-12-18T12:18:22;31.27;;;31.27;;
71174;SDS011;58876;51.994;4.472;2022-12-18T12:26:29;31.09;;;31.09;;
71174;SDS011;58876;51.994;4.472;2022-12-18T12:32:05;33.67;;;33.67;;
71174;SDS011;58876;51.994;4.472;2022-12-18T12:34:49;30.16;;;30.16;;
71174;SDS011;58876;51.994;4.472;2022-12-18T12:41:04;27.49;;;27.49;;
71174;SDS011;58876;51.994;4.472;2022-12-18T12:43:55;27.85;;;27.76;;
71174;SDS011;58876;51.994;4.472;2022-12-18T12:46:25;34.24;;;34.24;;
71174;SDS011;58876;51.994;4.472;2022-12-18T12:51:38;30.27;;;30.17;;
71174;SDS011;58876;51.994;4.472;2022-12-18T12:54:19;36.51;;;36.51;;
71174;SDS011;58876;51.994;4.472;2022-12-18T12:59:40;30.68;;;30.63;;
71174;SDS011;58876;51.994;4.472;2022-12-18T13:05:02;28.49;;;28.48;;
71174;SDS011;58876;51.994;4.472;2022-12-18T13:07:51;35.24;;;35.24;;
71174;SDS011;58876;51.994;4.472;2022-12-18T13:10:23;43.03;;;43.03;;
71174;SDS011;58876;51.994;4.472;2022-12-18T13:12:56;36.83;;;36.83;;
71174;SDS011;58876;51.994;4.472;2022-12-18T13:18:14;27.92;;;27.92;;
71174;SDS011;58876;51.994;4.472;2022-12-18T13:20:42;28.19;;;28.05;;
71174;SDS011;58876;51.994;4.472;2022-12-18T13:30:58;28.42;;;28.34;;
71174;SDS011;58876;51.994;4.472;2022-12-18T13:35:55;28.83;;;28.77;;
71174;SDS011;58876;51.994;4.472;2022-12-18T13:38:35;28.37;;;28.35;;
71174;SDS011;58876;51.994;4.472;2022-12-18T13:43:44;28.72;;;28.71;;
71174;SDS011;58876;51.994;4.472;2022-12-18T13:46:24;29.15;;;29.12;;
71174;SDS011;58876;51.994;4.472;2022-12-18T13:51:39;46.86;;;46.75;;
71174;SDS011;58876;51.994;4.472;2022-12-18T13:54:33;46.86;;;46.86;;
71174;SDS011;58876;51.994;4.472;2022-12-18T13:57:02;29.40;;;29.38;;
71174;SDS011;58876;51.994;4.472;2022-12-18T13:59:33;29.03;;;29.01;;
71174;SDS011;58876;51.994;4.472;2022-12-18T14:02:14;28.09;;;28.08;;
71174;SDS011;58876;51.994;4.472;2022-12-18T14:04:44;28.80;;;28.80;;
71174;SDS011;58876;51.994;4.472;2022-12-18T14:07:12;29.19;;;29.19;;
71174;SDS011;58876;51.994;4.472;2022-12-18T14:09:47;27.57;;;27.54;;
71174;SDS011;58876;51.994;4.472;2022-12-18T14:12:32;28.88;;;28.88;;
71174;SDS011;58876;51.994;4.472;2022-12-18T14:17:51;29.80;;;29.71;;
71174;SDS011;58876;51.994;4.472;2022-12-18T14:20:40;31.98;;;31.98;;
71174;SDS011;58876;51.994;4.472;2022-12-18T14:23:32;31.25;;;31.24;;
71174;SDS011;58876;51.994;4.472;2022-12-18T14:25:58;30.81;;;30.79;;
71174;SDS011;58876;51.994;4.472;2022-12-18T14:28:25;30.26;;;30.20;;
71174;SDS011;58876;51.994;4.472;2022-12-18T14:30:51;30.97;;;30.90;;
71174;SDS011;58876;51.994;4.472;2022-12-18T14:33:19;29.35;;;29.24;;
71174;SDS011;58876;51.994;4.472;2022-12-18T14:35:54;29.97;;;29.87;;
71174;SDS011;58876;51.994;4.472;2022-12-18T14:41:05;29.92;;;29.87;;
71174;SDS011;58876;51.994;4.472;2022-12-18T14:43:37;29.96;;;29.96;;
71174;SDS011;58876;51.994;4.472;2022-12-18T14:46:05;32.61;;;32.57;;
71174;SDS011;58876;51.994;4.472;2022-12-18T14:48:55;66.39;;;66.39;;
71174;SDS011;58876;51.994;4.472;2022-12-18T14:51:23;36.51;;;36.51;;
71174;SDS011;58876;51.994;4.472;2022-12-18T14:56:30;31.33;;;31.25;;
71174;SDS011;58876;51.994;4.472;2022-12-18T14:59:06;32.88;;;32.65;;
71174;SDS011;58876;51.994;4.472;2022-12-18T15:01:49;34.91;;;34.91;;
71174;SDS011;58876;51.994;4.472;2022-12-18T15:04:40;31.83;;;31.82;;
71174;SDS011;58876;51.994;4.472;2022-12-18T15:18:05;31.01;;;30.96;;
71174;SDS011;58876;51.994;4.472;2022-12-18T15:23:27;30.75;;;30.74;;
71174;SDS011;58876;51.994;4.472;2022-12-18T15:26:00;30.32;;;30.26;;
71174;SDS011;58876;51.994;4.472;2022-12-18T15:28:37;30.95;;;30.84;;
71174;SDS011;58876;51.994;4.472;2022-12-18T15:33:40;30.60;;;30.54;;
71174;SDS011;58876;51.994;4.472;2022-12-18T15:36:27;30.67;;;30.61;;
71174;SDS011;58876;51.994;4.472;2022-12-18T15:38:54;30.33;;;30.26;;
71174;SDS011;58876;51.994;4.472;2022-12-18T15:41:21;29.11;;;29.06;;
71174;SDS011;58876;51.994;4.472;2022-12-18T15:43:47;29.44;;;29.36;;
71174;SDS011;58876;51.994;4.472;2022-12-18T15:46:16;29.16;;;29.11;;
71174;SDS011;58876;51.994;4.472;2022-12-18T15:48:44;29.55;;;29.51;;
71174;SDS011;58876;51.994;4.472;2022-12-18T15:51:34;29.15;;;29.13;;
71174;SDS011;58876;51.994;4.472;2022-12-18T15:54:02;29.06;;;28.94;;
71174;SDS011;58876;51.994;4.472;2022-12-18T15:56:31;28.75;;;28.52;;
71174;SDS011;58876;51.994;4.472;2022-12-18T15:59:17;27.87;;;27.82;;
71174;SDS011;58876;51.994;4.472;2022-12-18T16:01:49;28.49;;;28.45;;
71174;SDS011;58876;51.994;4.472;2022-12-18T16:04:18;28.07;;;28.04;;
71174;SDS011;58876;51.994;4.472;2022-12-18T16:06:45;28.79;;;28.63;;
71174;SDS011;58876;51.994;4.472;2022-12-18T16:09:11;29.07;;;28.46;;
71174;SDS011;58876;51.994;4.472;2022-12-18T16:11:37;28.11;;;27.92;;
71174;SDS011;58876;51.994;4.472;2022-12-18T16:16:45;29.13;;;29.13;;
71174;SDS011;58876;51.994;4.472;2022-12-18T16:19:13;28.93;;;28.78;;
71174;SDS011;58876;51.994;4.472;2022-12-18T16:21:39;28.82;;;28.78;;
71174;SDS011;58876;51.994;4.472;2022-12-18T16:24:05;28.71;;;28.67;;
71174;SDS011;58876;51.994;4.472;2022-12-18T16:26:33;29.31;;;29.07;;
71174;SDS011;58876;51.994;4.472;2022-12-18T16:28:58;28.85;;;28.66;;
71174;SDS011;58876;51.994;4.472;2022-12-18T16:31:24;29.34;;;29.22;;
71174;SDS011;58876;51.994;4.472;2022-12-18T16:33:49;29.30;;;29.26;;
71174;SDS011;58876;51.994;4.472;2022-12-18T16:36:34;28.68;;;28.55;;
71174;SDS011;58876;51.994;4.472;2022-12-18T16:38:59;29.49;;;29.43;;
71174;SDS011;58876;51.994;4.472;2022-12-18T16:41:25;30.06;;;29.79;;